Time;durP1;ratioP1;P1;durP2;ratioP2;P2;SDS_P1;SDS_P2;PMS_P1;PMS_P2;Temp;Humidity;BMP_temperature;BMP_pressure;BME280_temperature;BME280_humidity;BME280_pressure;Samples;Min_cycle;Max_cycle;Signal;HPM_P1;HPM_P2
2022/10/08 00:01:06;;;;;;;8.05;5.13;;;;;;;;;;5006977;28;20055;-67
2022/10/08 00:03:37;;;;;;;8.52;5.68;;;;;;;;;;4989702;28;20355;-67
2022/10/08 00:06:11;;;;;;;9.65;6.28;;;;;;;;;;4989127;28;20439;-67
2022/10/08 00:08:37;;;;;;;11.70;6.28;;;;;;;;;;4989110;28;20454;-67
2022/10/08 00:11:06;;;;;;;14.13;6.10;;;;;;;;;;4988868;28;20532;-68
2022/10/08 00:13:41;;;;;;;13.13;6.50;;;;;;;;;;5008482;28;20419;-68
2022/10/08 00:16:15;;;;;;;10.80;6.05;;;;;;;;;;5006544;28;20040;-67
2022/10/08 00:18:42;;;;;;;8.63;5.25;;;;;;;;;;4991714;28;20029;-67
2022/10/08 00:21:13;;;;;;;8.80;5.70;;;;;;;;;;4992619;28;20339;-67
2022/10/08 00:23:39;;;;;;;9.60;5.68;;;;;;;;;;4992709;28;20359;-67
2022/10/08 00:26:06;;;;;;;8.43;4.88;;;;;;;;;;4991906;28;20364;-67
2022/10/08 00:28:32;;;;;;;14.50;5.38;;;;;;;;;;5010122;28;20390;-68
2022/10/08 00:30:57;;;;;;;12.15;5.38;;;;;;;;;;4992139;28;20383;-67
2022/10/08 00:33:23;;;;;;;10.30;6.22;;;;;;;;;;5010070;28;20084;-67
2022/10/08 00:35:48;;;;;;;9.63;5.68;;;;;;;;;;5010511;28;20451;-67
2022/10/08 00:38:13;;;;;;;7.32;5.47;;;;;;;;;;5010901;28;20396;-67
2022/10/08 00:40:43;;;;;;;8.30;5.20;;;;;;;;;;5006846;28;20435;-68
2022/10/08 00:43:14;;;;;;;10.25;4.93;;;;;;;;;;4991889;28;20514;-67
2022/10/08 00:45:41;;;;;;;11.93;5.40;;;;;;;;;;4664103;28;10000389;-68
2022/10/08 00:48:11;;;;;;;8.02;4.95;;;;;;;;;;4991804;28;20435;-67
2022/10/08 00:50:38;;;;;;;7.78;5.00;;;;;;;;;;5011764;28;20443;-67
2022/10/08 00:53:06;;;;;;;14.13;5.25;;;;;;;;;;5009603;28;20433;-67
2022/10/08 00:55:32;;;;;;;10.57;4.88;;;;;;;;;;5009630;28;20478;-68
2022/10/08 00:58:04;;;;;;;8.05;5.07;;;;;;;;;;4992285;28;20455;-67
2022/10/08 01:00:30;;;;;;;11.68;4.85;;;;;;;;;;4974990;28;20396;-67
2022/10/08 01:02:55;;;;;;;9.35;4.85;;;;;;;;;;5008185;28;20386;-67
2022/10/08 01:05:32;;;;;;;20.00;5.40;;;;;;;;;;5008513;28;20339;-67
2022/10/08 01:08:10;;;;;;;10.70;4.45;;;;;;;;;;5008093;28;20443;-67
2022/10/08 01:11:01;;;;;;;11.98;5.32;;;;;;;;;;5007881;28;20344;-68
2022/10/08 01:13:27;;;;;;;15.50;5.18;;;;;;;;;;5009441;28;20393;-67
2022/10/08 01:15:59;;;;;;;6.88;4.70;;;;;;;;;;5026736;28;20048;-67
2022/10/08 01:18:41;;;;;;;8.85;5.10;;;;;;;;;;5029505;28;20405;-67
2022/10/08 01:21:22;;;;;;;11.18;5.40;;;;;;;;;;5010802;28;20408;-68
2022/10/08 01:24:05;;;;;;;9.88;5.32;;;;;;;;;;5029128;28;20439;-67
2022/10/08 01:26:44;;;;;;;7.82;5.15;;;;;;;;;;5031139;28;20415;-67
2022/10/08 01:29:18;;;;;;;8.75;5.05;;;;;;;;;;5010625;28;20323;-68
2022/10/08 01:31:50;;;;;;;14.18;4.70;;;;;;;;;;5010856;28;20470;-67
2022/10/08 01:34:23;;;;;;;10.88;5.18;;;;;;;;;;5011335;28;20445;-67
2022/10/08 01:36:50;;;;;;;10.23;4.53;;;;;;;;;;5028681;28;20107;-67
2022/10/08 01:39:18;;;;;;;10.27;5.05;;;;;;;;;;5010807;28;20454;-68
2022/10/08 01:41:52;;;;;;;8.45;4.78;;;;;;;;;;5010568;28;20453;-68
2022/10/08 01:44:23;;;;;;;9.15;5.25;;;;;;;;;;5028711;28;20386;-67
2022/10/08 01:46:49;;;;;;;9.45;4.80;;;;;;;;;;5006271;28;20465;-68
2022/10/08 01:49:20;;;;;;;11.25;4.63;;;;;;;;;;4990632;28;20404;-67
2022/10/08 01:51:51;;;;;;;9.05;5.03;;;;;;;;;;5009372;28;20535;-67
2022/10/08 01:54:16;;;;;;;9.00;4.80;;;;;;;;;;4990593;28;20335;-67
2022/10/08 01:56:43;;;;;;;10.10;4.70;;;;;;;;;;4990428;28;20413;-68
2022/10/08 01:59:19;;;;;;;8.57;5.22;;;;;;;;;;5008558;28;20048;-68
2022/10/08 02:02:12;;;;;;;7.05;5.00;;;;;;;;;;4990348;28;20443;-67
2022/10/08 02:04:37;;;;;;;9.88;5.38;;;;;;;;;;4990358;28;20526;-67
2022/10/08 02:07:21;;;;;;;8.95;5.07;;;;;;;;;;5008405;28;20423;-67
2022/10/08 02:09:53;;;;;;;10.10;5.70;;;;;;;;;;4991514;28;20431;-67
2022/10/08 02:12:21;;;;;;;6.93;4.50;;;;;;;;;;4989987;28;20071;-68
2022/10/08 02:14:49;;;;;;;9.18;4.95;;;;;;;;;;5007772;28;20371;-68
2022/10/08 02:17:22;;;;;;;12.32;5.45;;;;;;;;;;4989973;28;20431;-67
2022/10/08 02:19:55;;;;;;;9.82;5.20;;;;;;;;;;4990764;28;20425;-68
2022/10/08 02:22:24;;;;;;;7.50;4.90;;;;;;;;;;4990046;28;20431;-68
2022/10/08 02:24:54;;;;;;;10.00;4.53;;;;;;;;;;4990086;28;20450;-67
2022/10/08 02:27:26;;;;;;;8.77;4.82;;;;;;;;;;4989952;28;20571;-68
2022/10/08 02:30:07;;;;;;;10.63;4.80;;;;;;;;;;5007977;28;20506;-68
2022/10/08 02:32:38;;;;;;;7.82;4.55;;;;;;;;;;4973238;28;20466;-67
2022/10/08 02:35:24;;;;;;;7.65;5.00;;;;;;;;;;5008102;28;20462;-67
2022/10/08 02:38:11;;;;;;;7.72;4.97;;;;;;;;;;4990816;28;20457;-67
2022/10/08 02:40:40;;;;;;;7.88;4.70;;;;;;;;;;5007048;28;20051;-69
2022/10/08 02:43:08;;;;;;;9.05;4.80;;;;;;;;;;4989913;28;20454;-67
2022/10/08 02:45:42;;;;;;;6.35;4.05;;;;;;;;;;4989784;28;20343;-67
2022/10/08 02:48:13;;;;;;;7.03;4.65;;;;;;;;;;4990890;28;20351;-68
2022/10/08 02:50:40;;;;;;;10.45;4.25;;;;;;;;;;4989666;28;20424;-68
2022/10/08 02:53:06;;;;;;;6.80;4.22;;;;;;;;;;4989546;28;20465;-67
2022/10/08 02:55:40;;;;;;;9.10;4.38;;;;;;;;;;5007660;28;20431;-67
2022/10/08 02:58:08;;;;;;;7.28;4.38;;;;;;;;;;4989652;28;20493;-67
2022/10/08 03:00:39;;;;;;;9.07;4.45;;;;;;;;;;4990413;28;20115;-68
2022/10/08 03:03:13;;;;;;;11.80;5.30;;;;;;;;;;4989619;28;20365;-67
2022/10/08 03:05:41;;;;;;;7.40;4.60;;;;;;;;;;4972845;28;20320;-68
2022/10/08 03:08:07;;;;;;;7.95;4.68;;;;;;;;;;5008399;28;20380;-68
2022/10/08 03:10:35;;;;;;;7.53;4.80;;;;;;;;;;4989401;28;20114;-67
2022/10/08 03:13:01;;;;;;;9.82;4.85;;;;;;;;;;4989218;28;20358;-67
2022/10/08 03:15:28;;;;;;;7.13;4.05;;;;;;;;;;4989485;28;20446;-67
2022/10/08 03:17:54;;;;;;;8.23;5.32;;;;;;;;;;4989560;28;20024;-67
2022/10/08 03:20:20;;;;;;;9.10;5.00;;;;;;;;;;4989453;28;20409;-68
2022/10/08 03:22:45;;;;;;;6.25;4.35;;;;;;;;;;4989735;28;20025;-68
2022/10/08 03:25:11;;;;;;;6.65;4.13;;;;;;;;;;4989433;28;20028;-68
2022/10/08 03:27:36;;;;;;;8.70;3.90;;;;;;;;;;5007356;28;20379;-67
2022/10/08 03:30:02;;;;;;;6.05;4.25;;;;;;;;;;4990526;28;20331;-67
2022/10/08 03:32:28;;;;;;;8.15;4.82;;;;;;;;;;5008624;28;20339;-68
2022/10/08 03:34:53;;;;;;;7.97;4.93;;;;;;;;;;5007293;28;20367;-68
2022/10/08 03:37:19;;;;;;;8.25;4.75;;;;;;;;;;5008619;28;20455;-67
2022/10/08 03:39:44;;;;;;;8.00;5.05;;;;;;;;;;4989219;28;20328;-67
2022/10/08 03:42:10;;;;;;;7.68;4.43;;;;;;;;;;5009076;28;20032;-67
2022/10/08 03:44:36;;;;;;;8.70;4.85;;;;;;;;;;5007406;28;20404;-67
2022/10/08 03:47:01;;;;;;;6.85;4.25;;;;;;;;;;5006967;28;20173;-67
2022/10/08 03:49:26;;;;;;;9.98;4.78;;;;;;;;;;5007208;28;20475;-67
2022/10/08 03:51:52;;;;;;;10.18;5.57;;;;;;;;;;5008694;28;20457;-68
2022/10/08 03:54:17;;;;;;;8.82;4.53;;;;;;;;;;5010913;28;20392;-67
2022/10/08 03:56:42;;;;;;;12.93;5.22;;;;;;;;;;5010707;28;20320;-68
2022/10/08 03:59:08;;;;;;;8.30;4.43;;;;;;;;;;4993119;28;20446;-67
2022/10/08 04:01:33;;;;;;;7.07;4.45;;;;;;;;;;5011428;28;20028;-68
2022/10/08 04:03:59;;;;;;;10.63;5.60;;;;;;;;;;4992773;28;20436;-67
2022/10/08 04:06:24;;;;;;;11.98;5.80;;;;;;;;;;5010390;28;20048;-68
2022/10/08 04:08:49;;;;;;;13.27;5.18;;;;;;;;;;4992641;28;20414;-68
2022/10/08 04:11:17;;;;;;;9.35;5.53;;;;;;;;;;4992366;28;20447;-68
2022/10/08 04:13:43;;;;;;;10.00;5.50;;;;;;;;;;5010413;28;20348;-68
2022/10/08 04:16:16;;;;;;;10.55;5.22;;;;;;;;;;4992338;28;20398;-67
2022/10/08 04:18:42;;;;;;;9.48;5.63;;;;;;;;;;5010481;28;20423;-67
2022/10/08 04:21:10;;;;;;;13.02;5.28;;;;;;;;;;5011519;28;20443;-67
2022/10/08 04:23:37;;;;;;;13.25;6.20;;;;;;;;;;4992179;28;20474;-68
2022/10/08 04:26:03;;;;;;;8.35;4.65;;;;;;;;;;4992285;28;20646;-67
2022/10/08 04:28:28;;;;;;;7.55;4.78;;;;;;;;;;4992212;28;20488;-68
2022/10/08 04:30:58;;;;;;;10.40;4.70;;;;;;;;;;5010258;28;20047;-68
2022/10/08 04:33:24;;;;;;;10.10;4.90;;;;;;;;;;4992004;28;20066;-68
2022/10/08 04:35:50;;;;;;;7.38;4.38;;;;;;;;;;4991913;28;20416;-68
2022/10/08 04:38:15;;;;;;;7.45;4.40;;;;;;;;;;5010052;28;20151;-68
2022/10/08 04:40:40;;;;;;;8.02;4.75;;;;;;;;;;5010229;28;20416;-67
2022/10/08 04:43:05;;;;;;;6.80;4.20;;;;;;;;;;5010250;28;20321;-67
2022/10/08 04:45:31;;;;;;;16.05;4.88;;;;;;;;;;5010008;28;20024;-68
2022/10/08 04:47:56;;;;;;;8.27;4.82;;;;;;;;;;5010531;28;20640;-68
2022/10/08 04:50:21;;;;;;;7.55;4.45;;;;;;;;;;5009801;28;20340;-67
2022/10/08 04:52:47;;;;;;;8.88;5.10;;;;;;;;;;5009649;28;20036;-68
2022/10/08 04:55:12;;;;;;;9.05;5.65;;;;;;;;;;5010108;28;20447;-68
2022/10/08 04:57:38;;;;;;;13.80;6.10;;;;;;;;;;5010590;28;20450;-67
2022/10/08 05:00:04;;;;;;;9.32;4.85;;;;;;;;;;5009626;28;20029;-68
2022/10/08 05:02:30;;;;;;;11.02;5.43;;;;;;;;;;4990947;28;20459;-68
2022/10/08 05:04:55;;;;;;;7.90;5.40;;;;;;;;;;5009307;28;20466;-68
2022/10/08 05:07:20;;;;;;;7.80;5.18;;;;;;;;;;5010142;28;20392;-68
2022/10/08 05:09:46;;;;;;;14.50;6.45;;;;;;;;;;4991704;28;20530;-69
2022/10/08 05:12:11;;;;;;;11.32;6.63;;;;;;;;;;5009404;28;20338;-68
2022/10/08 05:14:36;;;;;;;12.35;6.72;;;;;;;;;;5009148;28;20367;-67
2022/10/08 05:17:02;;;;;;;13.25;7.10;;;;;;;;;;5009242;28;20455;-68
2022/10/08 05:19:27;;;;;;;11.27;5.97;;;;;;;;;;5009373;28;20056;-68
2022/10/08 05:21:52;;;;;;;11.23;6.28;;;;;;;;;;5009216;28;20420;-68
2022/10/08 05:24:17;;;;;;;13.75;6.53;;;;;;;;;;5009309;28;20498;-68
2022/10/08 05:26:43;;;;;;;35.78;7.20;;;;;;;;;;5009619;28;20527;-68
2022/10/08 05:29:09;;;;;;;10.43;6.97;;;;;;;;;;5011020;28;20387;-68
2022/10/08 05:31:35;;;;;;;13.50;6.65;;;;;;;;;;4991782;28;20051;-68
2022/10/08 05:34:00;;;;;;;13.13;6.10;;;;;;;;;;5010114;28;20342;-68
2022/10/08 05:36:30;;;;;;;10.32;5.05;;;;;;;;;;5008848;28;20339;-68
2022/10/08 05:38:58;;;;;;;17.02;6.10;;;;;;;;;;5009487;28;20336;-68
2022/10/08 05:41:25;;;;;;;8.10;5.22;;;;;;;;;;5008934;28;20409;-68
2022/10/08 05:43:52;;;;;;;12.07;6.15;;;;;;;;;;5008715;28;20020;-68
2022/10/08 05:46:17;;;;;;;10.38;5.82;;;;;;;;;;5008917;28;20028;-68
2022/10/08 05:48:43;;;;;;;9.45;5.30;;;;;;;;;;4990743;28;20055;-68
2022/10/08 05:51:11;;;;;;;7.85;5.13;;;;;;;;;;5010403;28;20447;-68
2022/10/08 05:53:39;;;;;;;7.72;4.97;;;;;;;;;;4991492;28;20078;-68
2022/10/08 05:56:07;;;;;;;15.02;6.00;;;;;;;;;;4990571;28;20411;-68
2022/10/08 05:58:34;;;;;;;13.38;5.75;;;;;;;;;;4990617;28;20115;-68
2022/10/08 06:01:07;;;;;;;7.57;5.30;;;;;;;;;;4990541;28;20520;-68
2022/10/08 06:03:33;;;;;;;8.45;5.60;;;;;;;;;;4990426;28;20127;-68
2022/10/08 06:06:04;;;;;;;6.97;4.78;;;;;;;;;;4990397;28;20104;-68
2022/10/08 06:08:30;;;;;;;9.07;5.15;;;;;;;;;;5009465;28;20433;-68
2022/10/08 06:10:56;;;;;;;10.10;5.60;;;;;;;;;;4973866;28;20343;-68
2022/10/08 06:13:21;;;;;;;15.27;5.80;;;;;;;;;;5008486;28;20338;-68
2022/10/08 06:15:58;;;;;;;7.28;5.05;;;;;;;;;;5007937;28;20527;-68
2022/10/08 06:18:25;;;;;;;9.05;5.15;;;;;;;;;;5009115;28;20373;-68
2022/10/08 06:20:50;;;;;;;8.85;5.32;;;;;;;;;;4990174;28;20435;-68
2022/10/08 06:23:16;;;;;;;8.82;4.80;;;;;;;;;;4990100;28;20454;-68
2022/10/08 06:25:41;;;;;;;9.55;5.80;;;;;;;;;;4990049;28;20443;-68
2022/10/08 06:28:07;;;;;;;11.90;5.10;;;;;;;;;;5010037;28;20032;-68
2022/10/08 06:30:32;;;;;;;8.60;5.47;;;;;;;;;;5008016;28;20378;-68
2022/10/08 06:32:57;;;;;;;13.38;6.43;;;;;;;;;;5007751;28;20576;-68
2022/10/08 06:35:23;;;;;;;10.57;5.53;;;;;;;;;;5009615;28;20508;-68
2022/10/08 06:37:48;;;;;;;8.93;6.03;;;;;;;;;;4989875;28;20443;-68
2022/10/08 06:40:14;;;;;;;10.50;6.03;;;;;;;;;;5008328;28;20534;-68
2022/10/08 06:42:39;;;;;;;10.10;5.07;;;;;;;;;;5007719;28;20389;-68
2022/10/08 06:45:05;;;;;;;12.57;6.10;;;;;;;;;;5008318;28;20390;-68
2022/10/08 06:47:30;;;;;;;8.52;4.95;;;;;;;;;;5007685;28;20414;-68
2022/10/08 06:49:56;;;;;;;7.32;4.55;;;;;;;;;;5007574;28;20447;-68
2022/10/08 06:52:21;;;;;;;10.48;5.10;;;;;;;;;;5007583;28;20428;-67
2022/10/08 06:54:46;;;;;;;5.20;3.35;;;;;;;;;;4989758;28;20339;-68
2022/10/08 06:57:11;;;;;;;7.65;3.28;;;;;;;;;;5007542;28;20601;-67
2022/10/08 06:59:37;;;;;;;11.05;5.65;;;;;;;;;;4989769;28;20455;-68
2022/10/08 07:02:02;;;;;;;7.55;4.25;;;;;;;;;;4989359;28;20398;-67
2022/10/08 07:04:28;;;;;;;6.47;3.83;;;;;;;;;;5007630;28;20366;-68
2022/10/08 07:06:53;;;;;;;9.10;4.50;;;;;;;;;;5007586;28;20362;-68
2022/10/08 07:09:18;;;;;;;7.35;3.63;;;;;;;;;;5009641;28;20431;-67
2022/10/08 07:11:44;;;;;;;8.80;4.20;;;;;;;;;;4990209;28;20453;-68
2022/10/08 07:14:09;;;;;;;18.70;7.72;;;;;;;;;;5008345;28;21583;-67
2022/10/08 07:16:34;;;;;;;9.32;4.70;;;;;;;;;;5007917;28;20313;-67
2022/10/08 07:19:00;;;;;;;18.42;7.32;;;;;;;;;;5007376;28;20382;-67
2022/10/08 07:21:26;;;;;;;16.80;7.70;;;;;;;;;;4989230;28;20485;-68
2022/10/08 07:23:52;;;;;;;21.00;7.70;;;;;;;;;;4990308;28;20043;-67
2022/10/08 07:26:19;;;;;;;13.82;8.18;;;;;;;;;;5007906;28;20467;-67
2022/10/08 07:28:50;;;;;;;17.77;9.20;;;;;;;;;;5011362;28;20066;-67
2022/10/08 07:31:17;;;;;;;15.93;8.70;;;;;;;;;;5011388;28;20164;-67
2022/10/08 07:33:43;;;;;;;15.25;8.75;;;;;;;;;;4976845;28;20339;-67
2022/10/08 07:36:16;;;;;;;12.98;6.97;;;;;;;;;;5011370;28;20311;-67
2022/10/08 07:38:42;;;;;;;12.05;7.32;;;;;;;;;;4993296;28;20447;-67
2022/10/08 07:41:08;;;;;;;14.88;8.10;;;;;;;;;;5011772;28;20324;-67
2022/10/08 07:43:34;;;;;;;16.92;6.97;;;;;;;;;;4993253;28;20347;-67
2022/10/08 07:45:59;;;;;;;18.88;7.20;;;;;;;;;;5011944;28;20029;-68
2022/10/08 07:48:27;;;;;;;10.77;5.57;;;;;;;;;;4993945;28;20105;-67
2022/10/08 07:50:52;;;;;;;11.80;5.93;;;;;;;;;;4993137;28;20451;-67
2022/10/08 07:53:18;;;;;;;15.35;6.75;;;;;;;;;;5011565;28;20516;-67
2022/10/08 07:55:43;;;;;;;13.82;5.78;;;;;;;;;;5010638;28;20434;-67
2022/10/08 07:58:09;;;;;;;10.20;5.40;;;;;;;;;;5010678;28;20454;-67
2022/10/08 08:00:37;;;;;;;15.05;6.00;;;;;;;;;;5012297;28;20514;-67
2022/10/08 08:03:03;;;;;;;9.68;5.40;;;;;;;;;;5011503;28;20391;-67
2022/10/08 08:05:32;;;;;;;12.02;5.28;;;;;;;;;;5010590;28;20407;-67
2022/10/08 08:07:57;;;;;;;6.35;4.40;;;;;;;;;;5010563;28;20105;-68
2022/10/08 08:10:22;;;;;;;9.55;4.70;;;;;;;;;;5010750;28;20028;-67
2022/10/08 08:12:48;;;;;;;9.18;4.90;;;;;;;;;;5010402;28;20419;-67
2022/10/08 08:15:13;;;;;;;6.28;3.67;;;;;;;;;;4992030;28;20473;-67
2022/10/08 08:17:39;;;;;;;7.65;4.10;;;;;;;;;;5010549;28;20420;-67
2022/10/08 08:20:04;;;;;;;6.85;4.00;;;;;;;;;;5010274;28;20399;-67
2022/10/08 08:22:29;;;;;;;6.97;3.70;;;;;;;;;;4992183;28;20459;-67
2022/10/08 08:24:55;;;;;;;7.18;3.53;;;;;;;;;;5010821;28;20321;-67
2022/10/08 08:27:21;;;;;;;10.60;4.00;;;;;;;;;;5010270;28;20510;-67
2022/10/08 08:29:46;;;;;;;6.65;3.42;;;;;;;;;;5010422;28;20391;-67
2022/10/08 08:32:11;;;;;;;5.38;3.50;;;;;;;;;;5010778;28;20111;-67
2022/10/08 08:34:37;;;;;;;7.18;3.63;;;;;;;;;;5010177;28;20191;-67
2022/10/08 08:37:03;;;;;;;7.13;3.65;;;;;;;;;;5009980;28;20413;-67
2022/10/08 08:39:29;;;;;;;5.05;3.08;;;;;;;;;;4991983;28;20410;-67
2022/10/08 08:42:23;;;;;;;6.57;3.20;;;;;;;;;;5010169;28;20454;-67
2022/10/08 08:44:56;;;;;;;5.18;3.08;;;;;;;;;;5010047;28;20512;-67
2022/10/08 08:47:26;;;;;;;5.63;3.22;;;;;;;;;;5010103;28;20060;-67
2022/10/08 08:50:03;;;;;;;11.77;2.80;;;;;;;;;;5012007;28;20101;-67
2022/10/08 08:52:32;;;;;;;4.65;3.08;;;;;;;;;;4992160;28;20469;-67
2022/10/08 08:54:59;;;;;;;6.00;3.10;;;;;;;;;;4992282;28;20052;-67
2022/10/08 08:57:56;;;;;;;5.45;3.10;;;;;;;;;;4991746;28;20024;-67
2022/10/08 09:00:24;;;;;;;5.38;2.97;;;;;;;;;;4991724;28;20347;-67
2022/10/08 09:02:54;;;;;;;5.10;3.00;;;;;;;;;;4991824;28;20462;-67
2022/10/08 09:05:21;;;;;;;5.50;2.83;;;;;;;;;;4992525;28;20443;-67
2022/10/08 09:07:54;;;;;;;7.82;2.80;;;;;;;;;;5009632;28;20105;-67
2022/10/08 09:10:33;;;;;;;4.97;2.90;;;;;;;;;;4992461;28;20508;-67
2022/10/08 09:12:59;;;;;;;5.05;2.80;;;;;;;;;;4991513;28;20383;-67
2022/10/08 09:15:35;;;;;;;3.92;2.75;;;;;;;;;;4991289;28;20036;-67
2022/10/08 09:18:02;;;;;;;4.07;2.78;;;;;;;;;;4991512;28;20435;-67
2022/10/08 09:20:28;;;;;;;5.32;2.75;;;;;;;;;;4974791;28;20375;-67
2022/10/08 09:22:54;;;;;;;4.68;2.97;;;;;;;;;;5009182;28;20443;-67
2022/10/08 09:25:27;;;;;;;4.63;2.95;;;;;;;;;;5009725;28;20466;-67
2022/10/08 09:28:04;;;;;;;5.95;3.38;;;;;;;;;;5011106;28;20322;-67
2022/10/08 09:30:41;;;;;;;3.95;2.50;;;;;;;;;;4992674;28;20463;-67
2022/10/08 09:33:06;;;;;;;4.10;2.30;;;;;;;;;;4992839;28;20024;-67
2022/10/08 09:35:33;;;;;;;4.32;2.67;;;;;;;;;;5010490;28;20447;-67
2022/10/08 09:37:58;;;;;;;6.43;2.60;;;;;;;;;;5009394;28;20055;-67
2022/10/08 09:40:26;;;;;;;7.07;2.45;;;;;;;;;;5010327;28;20032;-67
2022/10/08 09:43:10;;;;;;;5.15;2.45;;;;;;;;;;4991059;28;20444;-67
2022/10/08 09:45:47;;;;;;;3.95;2.55;;;;;;;;;;4991416;28;20371;-67
2022/10/08 09:48:23;;;;;;;4.65;2.45;;;;;;;;;;5011550;28;20387;-67
2022/10/08 09:51:00;;;;;;;4.20;2.40;;;;;;;;;;5008725;28;20509;-67
2022/10/08 09:53:30;;;;;;;3.45;2.25;;;;;;;;;;5008965;28;20032;-67
2022/10/08 09:55:59;;;;;;;6.30;2.28;;;;;;;;;;5009647;28;20093;-67
2022/10/08 09:58:24;;;;;;;3.13;2.58;;;;;;;;;;4991400;28;20426;-67
2022/10/08 10:01:05;;;;;;;4.70;2.83;;;;;;;;;;4991330;28;20112;-67
2022/10/08 10:03:32;;;;;;;3.78;2.42;;;;;;;;;;5009149;28;20356;-67
2022/10/08 10:05:58;;;;;;;2.53;1.95;;;;;;;;;;4991552;28;20487;-67
2022/10/08 10:08:47;;;;;;;4.00;2.40;;;;;;;;;;4990978;28;20521;-67
2022/10/08 10:11:18;;;;;;;3.17;2.47;;;;;;;;;;5008466;28;20430;-67
2022/10/08 10:13:44;;;;;;;4.03;2.67;;;;;;;;;;4990209;28;20443;-67
2022/10/08 10:16:14;;;;;;;5.15;2.60;;;;;;;;;;5007754;28;20439;-67
2022/10/08 10:18:50;;;;;;;5.50;2.50;;;;;;;;;;5008134;28;20449;-67
2022/10/08 10:21:22;;;;;;;3.78;2.17;;;;;;;;;;5009664;28;20299;-67
2022/10/08 10:24:06;;;;;;;4.00;2.58;;;;;;;;;;5007900;28;20351;-67
2022/10/08 10:26:36;;;;;;;3.67;2.20;;;;;;;;;;5008317;28;20351;-67
2022/10/08 10:29:08;;;;;;;5.25;2.50;;;;;;;;;;4990328;28;20470;-67
2022/10/08 10:32:11;;;;;;;5.18;2.38;;;;;;;;;;4990140;28;20032;-67
2022/10/08 10:34:38;;;;;;;4.13;2.80;;;;;;;;;;4892281;28;20438;-67
2022/10/08 10:37:08;;;;;;;2.95;2.15;;;;;;;;;;4972113;28;20041;-67
2022/10/08 10:39:37;;;;;;;3.97;2.03;;;;;;;;;;5008412;28;20060;-67
2022/10/08 10:42:17;;;;;;;2.83;2.43;;;;;;;;;;5010171;28;20317;-67
2022/10/08 10:44:50;;;;;;;5.10;2.30;;;;;;;;;;5008281;28;20379;-67
2022/10/08 10:47:18;;;;;;;5.50;2.75;;;;;;;;;;5007720;28;20344;-67
2022/10/08 10:49:43;;;;;;;7.03;2.05;;;;;;;;;;4989799;28;20033;-67
2022/10/08 10:52:36;;;;;;;3.45;2.60;;;;;;;;;;5007507;28;20086;-69
2022/10/08 10:55:20;;;;;;;8.23;3.28;;;;;;;;;;5007574;28;20452;-67
2022/10/08 10:58:09;;;;;;;4.30;2.40;;;;;;;;;;5007641;28;20469;-67
2022/10/08 11:00:50;;;;;;;4.75;2.65;;;;;;;;;;5008343;28;20316;-67
2022/10/08 11:03:23;;;;;;;6.20;2.80;;;;;;;;;;5008265;28;20041;-67
2022/10/08 11:05:54;;;;;;;3.35;2.33;;;;;;;;;;4990508;28;20447;-67
2022/10/08 11:08:30;;;;;;;4.18;2.50;;;;;;;;;;5007692;28;20396;-67
2022/10/08 11:11:20;;;;;;;3.70;2.40;;;;;;;;;;5008404;28;20339;-67
2022/10/08 11:14:15;;;;;;;4.00;2.53;;;;;;;;;;5007443;28;20386;-67
2022/10/08 11:17:04;;;;;;;4.53;2.80;;;;;;;;;;4971721;28;20439;-67
2022/10/08 11:19:47;;;;;;;3.70;2.45;;;;;;;;;;5007835;28;20362;-67
2022/10/08 11:22:24;;;;;;;3.72;2.58;;;;;;;;;;5007265;28;20435;-67
2022/10/08 11:24:55;;;;;;;4.07;2.63;;;;;;;;;;4989702;28;20343;-67
2022/10/08 11:27:30;;;;;;;7.90;2.60;;;;;;;;;;5007169;28;20316;-67
2022/10/08 11:30:12;;;;;;;5.47;2.78;;;;;;;;;;4989601;28;20435;-67
2022/10/08 11:32:49;;;;;;;4.63;2.60;;;;;;;;;;4989797;28;20359;-67
2022/10/08 11:35:26;;;;;;;4.97;2.60;;;;;;;;;;4989121;28;20347;-67
2022/10/08 11:38:15;;;;;;;4.15;2.60;;;;;;;;;;4989738;28;20352;-67
2022/10/08 11:40:47;;;;;;;;;;;;;;;;;;4990495;28;20320;-67
2022/10/08 11:43:38;;;;;;;3.38;2.47;;;;;;;;;;5007721;28;20343;-67
2022/10/08 11:46:27;;;;;;;8.88;2.70;;;;;;;;;;5007373;28;20475;-67
2022/10/08 11:49:02;;;;;;;4.97;2.53;;;;;;;;;;5007613;28;20528;-67
2022/10/08 11:51:31;;;;;;;4.30;2.80;;;;;;;;;;4989173;28;20474;-67
2022/10/08 11:54:08;;;;;;;3.63;2.53;;;;;;;;;;4989184;28;20033;-67
2022/10/08 11:56:39;;;;;;;6.65;2.67;;;;;;;;;;5007644;28;20447;-67
2022/10/08 11:59:29;;;;;;;4.07;2.85;;;;;;;;;;5007147;28;20089;-67
2022/10/08 12:02:03;;;;;;;4.55;2.67;;;;;;;;;;4993095;28;20447;-67
2022/10/08 12:04:33;;;;;;;7.10;2.97;;;;;;;;;;4989043;28;20370;-67
2022/10/08 12:07:13;;;;;;;5.63;2.92;;;;;;;;;;5007631;28;20320;-67
2022/10/08 12:10:08;;;;;;;4.50;2.83;;;;;;;;;;5007089;28;20516;-67
2022/10/08 12:12:48;;;;;;;4.47;2.83;;;;;;;;;;5008104;28;20336;-67
2022/10/08 12:15:23;;;;;;;3.42;2.53;;;;;;;;;;5010810;28;20419;-67
2022/10/08 12:17:56;;;;;;;4.38;3.08;;;;;;;;;;5010688;28;20389;-67
2022/10/08 12:20:24;;;;;;;6.68;2.67;;;;;;;;;;4992267;28;20461;-67
2022/10/08 12:23:08;;;;;;;4.30;2.70;;;;;;;;;;4992346;28;20025;-67
2022/10/08 12:25:43;;;;;;;5.38;2.85;;;;;;;;;;4992529;28;20415;-67
2022/10/08 12:28:17;;;;;;;5.70;2.78;;;;;;;;;;4992561;28;20477;-67
2022/10/08 12:30:57;;;;;;;4.40;2.50;;;;;;;;;;4992118;28;20386;-67
2022/10/08 12:33:23;;;;;;;4.85;2.72;;;;;;;;;;4992008;28;20473;-67
2022/10/08 12:36:07;;;;;;;4.97;2.55;;;;;;;;;;4992179;28;20336;-67
2022/10/08 12:38:51;;;;;;;4.25;3.13;;;;;;;;;;5011180;28;20447;-67
2022/10/08 12:41:24;;;;;;;4.63;2.88;;;;;;;;;;4992174;28;20032;-67
2022/10/08 12:44:06;;;;;;;7.45;3.28;;;;;;;;;;5010314;28;20419;-67
2022/10/08 12:46:40;;;;;;;4.47;2.78;;;;;;;;;;5009852;28;20451;-67
2022/10/08 12:49:21;;;;;;;5.20;2.85;;;;;;;;;;4992160;28;20028;-67
2022/10/08 12:51:58;;;;;;;4.63;3.10;;;;;;;;;;4991933;28;20382;-67
2022/10/08 12:54:26;;;;;;;5.20;3.17;;;;;;;;;;5010014;28;20451;-67
2022/10/08 12:56:51;;;;;;;4.32;3.13;;;;;;;;;;5010091;28;20047;-67
2022/10/08 12:59:18;;;;;;;3.65;2.67;;;;;;;;;;5009870;28;20447;-67
2022/10/08 13:01:45;;;;;;;3.83;2.70;;;;;;;;;;4991766;28;20443;-67
2022/10/08 13:04:22;;;;;;;4.28;3.10;;;;;;;;;;4991491;28;20055;-67
2022/10/08 13:06:49;;;;;;;4.40;2.70;;;;;;;;;;5009773;28;20036;-67
2022/10/08 13:09:18;;;;;;;5.03;3.10;;;;;;;;;;5009768;28;20471;-67
2022/10/08 13:11:43;;;;;;;4.05;2.47;;;;;;;;;;5011063;28;20469;-67
2022/10/08 13:14:25;;;;;;;4.78;3.13;;;;;;;;;;5009579;28;20408;-67
2022/10/08 13:16:50;;;;;;;4.38;3.00;;;;;;;;;;5011334;28;20340;-67
2022/10/08 13:19:17;;;;;;;7.45;3.97;;;;;;;;;;4991593;28;20028;-67
2022/10/08 13:21:54;;;;;;;7.95;4.57;;;;;;;;;;5009792;28;20459;-67
2022/10/08 13:24:19;;;;;;;6.82;3.97;;;;;;;;;;5008630;28;20106;-67
2022/10/08 13:26:48;;;;;;;6.88;4.05;;;;;;;;;;5009125;28;20461;-67
2022/10/08 13:29:19;;;;;;;7.70;3.75;;;;;;;;;;4991711;28;20028;-67
2022/10/08 13:32:12;;;;;;;6.30;4.00;;;;;;;;;;5009017;28;20458;-67
2022/10/08 13:34:41;;;;;;;6.28;4.35;;;;;;;;;;4991320;28;20463;-67
2022/10/08 13:37:35;;;;;;;5.30;3.63;;;;;;;;;;4991479;28;20460;-67
2022/10/08 13:40:16;;;;;;;7.68;4.00;;;;;;;;;;4949019;28;20422;-67
2022/10/08 13:42:44;;;;;;;4.90;3.70;;;;;;;;;;4991522;28;20443;-67
2022/10/08 13:45:15;;;;;;;6.37;3.63;;;;;;;;;;4991148;28;20402;-67
2022/10/08 13:47:40;;;;;;;4.55;3.30;;;;;;;;;;4990776;28;20378;-67
2022/10/08 13:50:06;;;;;;;5.75;3.45;;;;;;;;;;5008522;28;20055;-67
2022/10/08 13:52:32;;;;;;;6.47;3.63;;;;;;;;;;5008421;28;20024;-67
2022/10/08 13:55:00;;;;;;;6.40;3.63;;;;;;;;;;5008758;28;20348;-67
2022/10/08 13:57:26;;;;;;;7.25;3.42;;;;;;;;;;4990517;28;20432;-67
2022/10/08 13:59:51;;;;;;;5.85;3.80;;;;;;;;;;5008541;28;20440;-67
2022/10/08 14:02:16;;;;;;;6.72;3.50;;;;;;;;;;5008321;28;20424;-67
2022/10/08 14:04:42;;;;;;;6.25;3.70;;;;;;;;;;5009275;28;20386;-67
2022/10/08 14:07:26;;;;;;;5.65;3.75;;;;;;;;;;5009154;28;20442;-67
2022/10/08 14:09:53;;;;;;;6.35;3.60;;;;;;;;;;4990994;28;20332;-67
2022/10/08 14:12:22;;;;;;;5.10;3.50;;;;;;;;;;4990130;28;20116;-67
2022/10/08 14:14:47;;;;;;;;;;;;;;;;;;5009423;28;20456;-67
2022/10/08 14:17:13;;;;;;;7.37;3.40;;;;;;;;;;5009332;28;20284;-67
2022/10/08 14:19:38;;;;;;;4.65;3.28;;;;;;;;;;5008171;28;20709;-67
2022/10/08 14:22:03;;;;;;;5.95;3.60;;;;;;;;;;5008034;28;20477;-67
2022/10/08 14:24:29;;;;;;;4.07;3.20;;;;;;;;;;5007806;28;20435;-67
2022/10/08 14:26:54;;;;;;;7.38;3.63;;;;;;;;;;4990088;28;20339;-67
2022/10/08 14:29:19;;;;;;;6.07;3.65;;;;;;;;;;5008611;28;20342;-66
2022/10/08 14:31:45;;;;;;;6.18;3.70;;;;;;;;;;5007825;28;20435;-67
2022/10/08 14:34:10;;;;;;;4.93;3.47;;;;;;;;;;4990107;28;20396;-67
2022/10/08 14:36:39;;;;;;;6.15;3.38;;;;;;;;;;5008164;28;20304;-67
2022/10/08 14:39:05;;;;;;;6.85;4.05;;;;;;;;;;4989943;28;20343;-67
2022/10/08 14:41:30;;;;;;;6.68;3.58;;;;;;;;;;5008000;28;20340;-67
2022/10/08 14:43:56;;;;;;;8.65;3.83;;;;;;;;;;5008583;28;20469;-68
2022/10/08 14:46:21;;;;;;;6.25;3.58;;;;;;;;;;4990228;28;20353;-67
2022/10/08 14:48:47;;;;;;;6.57;3.22;;;;;;;;;;5007752;28;20032;-67
2022/10/08 14:51:12;;;;;;;4.75;3.08;;;;;;;;;;5007596;28;20432;-67
2022/10/08 14:53:38;;;;;;;9.18;4.05;;;;;;;;;;4989365;28;20432;-67
2022/10/08 14:56:03;;;;;;;5.25;3.28;;;;;;;;;;4989305;28;20478;-67
2022/10/08 14:58:29;;;;;;;4.28;3.47;;;;;;;;;;4989944;28;20111;-67